createdAt,value
2023-03-21T00:01:55.277Z,25.80
2023-03-21T00:04:24.735Z,26.50
2023-03-21T00:06:51.888Z,26.20
2023-03-21T00:09:19.395Z,26.20
2023-03-21T00:11:46.856Z,26.00
2023-03-21T00:14:19.127Z,26.30
2023-03-21T00:16:50.937Z,26.80
2023-03-21T00:19:21.570Z,26.90
2023-03-21T00:24:39.564Z,26.50
2023-03-21T00:27:42.891Z,26.10
2023-03-21T00:29:54.547Z,26.10
2023-03-21T00:32:21.999Z,26.20
2023-03-21T00:35:40.759Z,26.00
2023-03-21T00:37:37.308Z,25.70
2023-03-21T00:40:23.054Z,25.60
2023-03-21T00:42:52.849Z,25.50
2023-03-21T00:45:22.369Z,25.20
2023-03-21T00:47:50.716Z,25.60
2023-03-21T00:50:18.375Z,25.50
2023-03-21T00:52:45.498Z,25.30
2023-03-21T00:55:17.963Z,25.40
2023-03-21T00:57:50.009Z,25.60
2023-03-21T01:00:20.649Z,25.60
2023-03-21T01:03:14.256Z,26.10
2023-03-21T01:06:06.223Z,25.50
2023-03-21T01:08:53.727Z,25.40
2023-03-21T01:11:24.944Z,25.60
2023-03-21T01:14:07.392Z,26.40
2023-03-21T01:16:40.306Z,27.00
2023-03-21T01:19:24.257Z,26.90
2023-03-21T01:21:52.371Z,26.30
2023-03-21T01:24:19.436Z,26.10
2023-03-21T01:26:46.415Z,26.30
2023-03-21T01:29:13.469Z,26.20
2023-03-21T01:31:40.649Z,25.70
2023-03-21T01:34:07.674Z,25.60
2023-03-21T01:36:35.017Z,26.20
2023-03-21T01:39:02.032Z,25.90
2023-03-21T01:41:44.427Z,25.70
2023-03-21T01:44:17.424Z,25.10
2023-03-21T01:47:00.433Z,24.90
2023-03-21T01:49:41.097Z,25.20
2023-03-21T01:52:20.942Z,25.10
2023-03-21T01:54:56.228Z,25.90
2023-03-21T01:57:41.013Z,25.50
2023-03-21T02:00:15.571Z,25.40
2023-03-21T02:03:20.921Z,25.40
2023-03-21T02:06:05.355Z,25.60
2023-03-21T02:08:39.196Z,25.00
2023-03-21T02:11:10.125Z,24.80
2023-03-21T02:13:37.716Z,25.00
2023-03-21T02:16:42.938Z,25.00
2023-03-21T02:19:47.649Z,24.90
2023-03-21T02:22:49.257Z,24.90
2023-03-21T02:25:24.932Z,24.90
2023-03-21T02:28:01.878Z,24.90
2023-03-21T02:30:52.307Z,25.00
2023-03-21T02:34:00.684Z,24.70
2023-03-21T02:36:52.503Z,24.60
2023-03-21T02:39:37.615Z,25.00
2023-03-21T02:42:20.670Z,24.80
2023-03-21T02:44:53.994Z,24.90
2023-03-21T02:47:36.083Z,24.80
2023-03-21T02:50:14.658Z,25.10
2023-03-21T02:52:44.350Z,24.60
2023-03-21T02:55:22.435Z,24.30
2023-03-21T02:57:51.047Z,24.10
2023-03-21T03:00:23.074Z,24.20
2023-03-21T03:02:59.591Z,24.20
2023-03-21T03:05:41.306Z,24.30
2023-03-21T03:08:38.382Z,24.60
2023-03-21T03:11:13.043Z,24.60
2023-03-21T03:13:54.900Z,24.60
2023-03-21T03:16:40.427Z,24.80
2023-03-21T03:19:17.518Z,25.30
2023-03-21T03:22:01.548Z,24.80
2023-03-21T03:25:19.854Z,24.30
2023-03-21T03:27:55.558Z,24.40
2023-03-21T03:30:32.339Z,24.60
2023-03-21T03:33:08.855Z,24.70
2023-03-21T03:35:38.697Z,24.70
2023-03-21T03:38:07.944Z,25.10
2023-03-21T03:40:55.455Z,25.00
2023-03-21T03:43:28.461Z,25.20
2023-03-21T03:46:00.568Z,25.60
2023-03-21T03:48:46.687Z,25.60
2023-03-21T03:51:30.182Z,25.90
2023-03-21T03:54:02.124Z,26.00
2023-03-21T03:56:31.094Z,25.60
2023-03-21T03:58:58.571Z,25.70
2023-03-21T04:01:26.767Z,25.60
2023-03-21T04:04:03.726Z,25.20
2023-03-21T04:06:38.746Z,25.00
2023-03-21T04:09:18.830Z,25.00
2023-03-21T04:11:47.790Z,25.20
2023-03-21T04:14:15.452Z,25.10
2023-03-21T04:16:42.929Z,25.10
2023-03-21T04:19:10.461Z,24.90
2023-03-21T04:21:37.467Z,24.80
2023-03-21T04:24:04.975Z,24.80
2023-03-21T04:26:33.748Z,24.90
2023-03-21T04:29:02.448Z,24.80
2023-03-21T04:31:31.533Z,24.60
2023-03-21T04:33:59.733Z,24.90
2023-03-21T04:36:39.337Z,24.70
2023-03-21T04:39:12.485Z,24.80
2023-03-21T04:41:41.153Z,24.80
2023-03-21T04:44:09.220Z,24.80
2023-03-21T04:46:36.604Z,24.60
2023-03-21T04:49:04.078Z,24.40
2023-03-21T04:51:31.154Z,24.20
2023-03-21T04:53:58.272Z,24.30
2023-03-21T04:56:32.152Z,24.60
2023-03-21T04:59:01.041Z,24.90
2023-03-21T05:01:31.323Z,24.70
2023-03-21T05:03:59.591Z,24.80
2023-03-21T05:06:27.989Z,24.90
2023-03-21T05:09:00.162Z,24.90
2023-03-21T05:11:31.002Z,25.20
2023-03-21T05:13:59.485Z,25.10
2023-03-21T05:16:30.737Z,25.00
2023-03-21T05:19:04.679Z,25.50
2023-03-21T05:21:41.885Z,25.00
2023-03-21T05:24:12.371Z,25.10
2023-03-21T05:26:40.481Z,25.20
2023-03-21T05:29:07.987Z,25.50
2023-03-21T05:31:35.149Z,25.50
2023-03-21T05:34:02.353Z,25.30
2023-03-21T05:36:29.622Z,24.90
2023-03-21T05:38:56.735Z,24.80
2023-03-21T05:41:23.742Z,25.00
2023-03-21T05:43:50.824Z,25.00
2023-03-21T05:46:17.916Z,25.00
2023-03-21T05:48:44.960Z,25.20
2023-03-21T05:51:11.984Z,25.10
2023-03-21T05:53:39.042Z,25.00
2023-03-21T05:56:06.600Z,25.20
2023-03-21T05:58:33.626Z,25.30
2023-03-21T06:01:00.739Z,25.00
2023-03-21T06:03:27.927Z,25.00
2023-03-21T06:05:55.049Z,25.30
2023-03-21T06:08:22.182Z,25.10
2023-03-21T06:10:49.132Z,25.00
2023-03-21T06:13:16.187Z,24.90
2023-03-21T06:15:43.418Z,25.20
2023-03-21T06:18:10.712Z,25.50
2023-03-21T06:20:37.725Z,25.00
2023-03-21T06:23:04.940Z,24.90
2023-03-21T06:25:32.108Z,24.90
2023-03-21T06:27:59.235Z,24.70
2023-03-21T06:30:26.394Z,24.80
2023-03-21T06:32:54.520Z,24.60
2023-03-21T06:35:21.555Z,25.00
2023-03-21T06:37:49.555Z,24.90
2023-03-21T06:40:19.034Z,25.10
2023-03-21T06:42:46.084Z,25.30
2023-03-21T06:45:13.277Z,25.10
2023-03-21T06:47:40.893Z,25.10
2023-03-21T06:50:08.531Z,25.10
2023-03-21T06:52:35.656Z,25.30
2023-03-21T06:55:02.697Z,25.20
2023-03-21T06:57:29.808Z,24.80
2023-03-21T06:59:56.932Z,24.80
2023-03-21T07:02:24.021Z,24.70
2023-03-21T07:04:51.134Z,24.70
2023-03-21T07:07:18.136Z,25.00
2023-03-21T07:09:45.239Z,25.30
2023-03-21T07:12:12.252Z,25.50
2023-03-21T07:14:39.192Z,25.60
2023-03-21T07:17:06.273Z,25.10
2023-03-21T07:19:33.349Z,24.90
2023-03-21T07:22:01.592Z,24.40
2023-03-21T07:24:28.657Z,24.10
2023-03-21T07:26:56.390Z,23.90
2023-03-21T07:29:23.565Z,23.80
2023-03-21T07:31:50.686Z,23.80
2023-03-21T07:34:19.087Z,23.90
2023-03-21T07:36:46.272Z,24.80
2023-03-21T07:39:13.339Z,24.70
2023-03-21T07:41:40.497Z,24.80
2023-03-21T07:44:07.627Z,25.00
2023-03-21T07:46:34.754Z,24.90
2023-03-21T07:49:01.963Z,24.60
2023-03-21T07:51:28.938Z,24.00
2023-03-21T07:53:55.883Z,24.40
2023-03-21T07:56:22.994Z,24.20
2023-03-21T07:58:49.962Z,24.20
2023-03-21T08:01:17.027Z,24.00
2023-03-21T08:03:44.405Z,24.00
2023-03-21T08:06:11.532Z,24.00
2023-03-21T08:08:38.551Z,23.90
2023-03-21T08:11:06.309Z,23.90
2023-03-21T08:13:34.049Z,23.90
2023-03-21T08:16:01.067Z,23.40
2023-03-21T08:18:28.121Z,23.10
2023-03-21T08:20:56.818Z,23.30
2023-03-21T08:23:24.849Z,23.40
2023-03-21T08:25:56.556Z,23.30
2023-03-21T08:28:24.222Z,22.70
2023-03-21T08:30:51.410Z,22.50
2023-03-21T08:33:18.938Z,22.20
2023-03-21T08:35:46.855Z,22.50
2023-03-21T08:38:14.104Z,22.80
2023-03-21T08:40:41.638Z,22.60
2023-03-21T08:43:08.958Z,22.60
2023-03-21T08:45:36.203Z,22.70
2023-03-21T08:48:03.839Z,22.80
2023-03-21T08:50:31.906Z,22.50
2023-03-21T08:52:59.104Z,22.60
2023-03-21T08:55:26.170Z,23.10
2023-03-21T08:57:53.187Z,22.30
2023-03-21T09:00:22.059Z,22.70
2023-03-21T09:02:51.638Z,22.50
2023-03-21T09:05:19.640Z,22.60
2023-03-21T09:07:47.342Z,22.60
2023-03-21T09:10:22.769Z,23.10
2023-03-21T09:12:52.074Z,23.50
2023-03-21T09:15:24.454Z,23.40
2023-03-21T09:17:54.539Z,23.00
2023-03-21T09:20:31.391Z,22.80
2023-03-21T09:22:59.959Z,22.60
2023-03-21T09:25:31.369Z,22.60
2023-03-21T09:28:00.705Z,22.30
2023-03-21T09:30:28.737Z,22.30
2023-03-21T09:32:56.138Z,22.00
2023-03-21T09:35:24.986Z,22.00
2023-03-21T09:37:52.412Z,22.00
2023-03-21T09:40:44.898Z,21.30
2023-03-21T09:43:36.294Z,21.40
2023-03-21T09:46:48.027Z,21.40
2023-03-21T09:49:25.720Z,22.10
2023-03-21T09:51:56.736Z,21.70
2023-03-21T09:54:28.140Z,21.80
2023-03-21T09:56:59.681Z,22.00
2023-03-21T09:59:38.232Z,22.50
2023-03-21T10:02:22.891Z,22.90
2023-03-21T10:04:50.396Z,23.00
2023-03-21T10:07:20.498Z,23.10
2023-03-21T10:09:49.177Z,22.60
2023-03-21T10:12:23.293Z,22.40
2023-03-21T10:14:58.171Z,22.10
2023-03-21T10:17:37.850Z,21.30
2023-03-21T10:20:12.073Z,22.30
2023-03-21T10:22:39.313Z,21.20
2023-03-21T10:25:07.890Z,20.90
2023-03-21T10:27:37.082Z,21.70
2023-03-21T10:30:07.737Z,21.00
2023-03-21T10:32:36.034Z,21.10
2023-03-21T10:35:05.143Z,20.40
2023-03-21T10:37:32.708Z,20.50
2023-03-21T10:40:00.059Z,20.80
2023-03-21T10:42:34.006Z,21.40
2023-03-21T10:45:01.469Z,21.30
2023-03-21T10:47:32.396Z,21.30
2023-03-21T10:50:09.308Z,22.30
2023-03-21T10:52:42.068Z,23.30
2023-03-21T10:55:34.076Z,23.20
2023-03-21T10:58:10.974Z,24.50
2023-03-21T11:00:41.788Z,25.20
2023-03-21T11:03:23.950Z,25.50
2023-03-21T11:05:57.457Z,25.50
2023-03-21T11:08:24.540Z,25.20
2023-03-21T11:11:00.909Z,25.30
2023-03-21T11:13:37.275Z,25.20
2023-03-21T11:16:11.027Z,25.20
2023-03-21T11:18:49.877Z,25.70
2023-03-21T11:21:17.931Z,26.70
2023-03-21T11:23:50.237Z,26.80
2023-03-21T11:26:32.808Z,26.80
2023-03-21T11:29:08.151Z,27.00
2023-03-21T11:31:40.223Z,27.30
2023-03-21T11:34:09.468Z,27.10
2023-03-21T11:36:41.608Z,27.10
2023-03-21T11:39:11.760Z,27.20
2023-03-21T11:41:41.048Z,27.20
2023-03-21T11:44:44.443Z,26.80
2023-03-21T11:47:12.120Z,27.50
2023-03-21T11:49:39.182Z,28.20
2023-03-21T11:52:09.111Z,27.70
2023-03-21T11:54:50.997Z,27.20
2023-03-21T11:57:54.855Z,27.40
2023-03-21T12:00:33.461Z,27.20
2023-03-21T12:03:25.424Z,26.60
2023-03-21T12:05:52.459Z,25.60
2023-03-21T12:08:44.453Z,25.50
2023-03-21T12:11:17.164Z,26.00
2023-03-21T12:14:04.077Z,25.30
2023-03-21T12:16:52.536Z,25.50
2023-03-21T12:19:50.554Z,26.60
2023-03-21T12:22:48.005Z,26.70
2023-03-21T12:25:22.015Z,26.80
2023-03-21T12:28:02.878Z,26.00
2023-03-21T12:30:35.900Z,25.30
2023-03-21T12:33:21.576Z,25.30
2023-03-21T12:36:18.584Z,25.60
2023-03-21T12:38:54.706Z,24.90
2023-03-21T12:41:28.974Z,25.00
2023-03-21T12:44:02.115Z,24.90
2023-03-21T12:47:03.769Z,24.60
2023-03-21T12:49:56.449Z,24.90
2023-03-21T12:52:32.087Z,25.90
2023-03-21T12:55:21.722Z,25.60
2023-03-21T12:58:03.091Z,25.30
2023-03-21T13:00:42.730Z,25.40
2023-03-21T13:03:30.652Z,25.80
2023-03-21T13:06:10.399Z,26.00
2023-03-21T13:08:39.749Z,25.50
2023-03-21T13:11:08.811Z,25.10
2023-03-21T13:13:52.941Z,25.10
2023-03-21T13:16:36.139Z,25.30
2023-03-21T13:19:36.200Z,26.30
2023-03-21T13:22:08.867Z,26.50
2023-03-21T13:24:49.235Z,26.40
2023-03-21T13:27:25.081Z,26.50
2023-03-21T13:29:54.992Z,26.80
2023-03-21T13:32:38.499Z,26.50
2023-03-21T13:35:34.084Z,27.80
2023-03-21T13:38:41.084Z,27.90
2023-03-21T13:41:13.128Z,27.50
2023-03-21T13:43:53.464Z,27.30
2023-03-21T13:46:26.649Z,26.90
2023-03-21T13:48:58.803Z,27.70
2023-03-21T13:51:29.911Z,27.90
2023-03-21T13:54:07.211Z,28.40
2023-03-21T13:56:52.320Z,27.80
2023-03-21T13:59:44.352Z,27.30
2023-03-21T14:02:14.129Z,27.10
2023-03-21T14:05:03.774Z,27.70
2023-03-21T14:07:59.328Z,27.30
2023-03-21T14:10:39.556Z,27.70
2023-03-21T14:13:10.101Z,28.30
2023-03-21T14:15:55.364Z,27.70
2023-03-21T14:18:52.407Z,27.60
2023-03-21T14:21:25.225Z,28.30
2023-03-21T14:24:16.776Z,27.80
2023-03-21T14:26:53.620Z,26.80
2023-03-21T14:29:26.436Z,26.40
2023-03-21T14:31:56.442Z,26.40
2023-03-21T14:34:26.183Z,26.90
2023-03-21T14:36:58.078Z,26.90
2023-03-21T14:39:33.332Z,27.50
2023-03-21T14:42:09.531Z,27.10
2023-03-21T14:44:54.465Z,27.10
2023-03-21T14:47:28.032Z,26.90
2023-03-21T14:49:56.599Z,27.10
2023-03-21T14:52:32.403Z,27.60
2023-03-21T14:55:01.781Z,26.80
2023-03-21T14:57:32.406Z,26.00
2023-03-21T15:00:13.796Z,26.00
2023-03-21T15:02:43.378Z,26.70
2023-03-21T15:05:18.643Z,26.60
2023-03-21T15:08:16.090Z,27.50
2023-03-21T15:11:06.004Z,27.00
2023-03-21T15:13:50.064Z,26.60
2023-03-21T15:16:18.417Z,26.70
2023-03-21T15:18:46.866Z,26.70
2023-03-21T15:21:46.245Z,26.50
2023-03-21T15:24:21.428Z,26.70
2023-03-21T15:26:49.849Z,26.40
2023-03-21T15:29:18.430Z,26.40
2023-03-21T15:31:48.263Z,26.80
2023-03-21T15:34:24.795Z,26.80
2023-03-21T15:36:58.175Z,26.30
2023-03-21T15:39:27.453Z,26.40
2023-03-21T15:42:20.418Z,26.20
2023-03-21T15:44:53.282Z,26.10
2023-03-21T15:47:43.978Z,26.00
2023-03-21T15:50:29.589Z,26.40
2023-03-21T15:53:00.378Z,26.40
2023-03-21T15:55:50.096Z,26.50
2023-03-21T15:58:23.725Z,26.30
2023-03-21T16:00:56.531Z,26.60
2023-03-21T16:03:33.323Z,26.50
2023-03-21T16:06:16.921Z,26.60
2023-03-21T16:08:52.245Z,26.40
2023-03-21T16:11:37.209Z,26.40
2023-03-21T16:14:04.672Z,26.00
2023-03-21T16:16:34.310Z,26.50
2023-03-21T16:19:02.821Z,26.60
2023-03-21T16:21:31.558Z,26.40
2023-03-21T16:23:58.892Z,26.10
2023-03-21T16:26:29.584Z,26.60
2023-03-21T16:28:57.727Z,26.10
2023-03-21T16:31:29.917Z,26.20
2023-03-21T16:34:01.931Z,26.10
2023-03-21T16:36:38.239Z,26.10
2023-03-21T16:39:27.169Z,26.00
2023-03-21T16:41:54.287Z,26.40
2023-03-21T16:44:21.276Z,26.10
2023-03-21T16:46:48.568Z,26.10
2023-03-21T16:49:25.095Z,26.40
2023-03-21T16:51:53.706Z,25.90
2023-03-21T16:54:21.316Z,26.10
2023-03-21T16:56:52.284Z,26.10
2023-03-21T16:59:19.889Z,26.10
2023-03-21T17:01:48.652Z,26.30
2023-03-21T17:04:18.521Z,26.10
2023-03-21T17:06:50.596Z,25.90
2023-03-21T17:09:23.212Z,26.00
2023-03-21T17:11:50.379Z,26.40
2023-03-21T17:14:18.097Z,26.20
2023-03-21T17:16:45.940Z,26.40
2023-03-21T17:19:26.539Z,27.20
2023-03-21T17:21:53.697Z,26.70
2023-03-21T17:24:21.038Z,26.50
2023-03-21T17:26:48.138Z,26.60
2023-03-21T17:29:15.718Z,26.50
2023-03-21T17:31:44.032Z,26.30
2023-03-21T17:34:11.296Z,27.20
2023-03-21T17:36:40.436Z,26.40
2023-03-21T17:39:12.999Z,25.90
2023-03-21T17:41:40.138Z,26.00
2023-03-21T17:44:07.378Z,25.90
2023-03-21T17:46:37.327Z,26.00
2023-03-21T17:49:05.861Z,25.80
2023-03-21T17:51:33.315Z,25.90
2023-03-21T17:54:01.317Z,26.00
2023-03-21T17:56:33.468Z,25.80
2023-03-21T17:59:07.610Z,25.80
2023-03-21T18:01:35.569Z,26.10
2023-03-21T18:04:04.904Z,26.20
2023-03-21T18:06:34.502Z,26.20
2023-03-21T18:09:07.235Z,26.10
2023-03-21T18:11:34.649Z,26.10
2023-03-21T18:14:15.409Z,26.20
2023-03-21T18:16:44.600Z,26.70
2023-03-21T18:19:13.566Z,27.00
2023-03-21T18:21:44.665Z,27.10
2023-03-21T18:24:12.682Z,27.20
2023-03-21T18:26:39.709Z,26.80
2023-03-21T18:32:05.878Z,26.60
2023-03-21T18:34:38.942Z,26.30
2023-03-21T18:37:08.342Z,26.30
2023-03-21T18:39:36.416Z,26.20
2023-03-21T18:42:05.839Z,26.00
2023-03-21T18:44:37.592Z,26.20
2023-03-21T18:47:06.620Z,26.50
2023-03-21T18:52:39.010Z,26.50
2023-03-21T18:55:06.660Z,26.80
2023-03-21T18:57:37.833Z,26.60
2023-03-21T19:00:13.597Z,26.40
2023-03-21T19:02:46.883Z,26.40
2023-03-21T19:05:16.223Z,26.60
2023-03-21T19:07:43.569Z,26.20
2023-03-21T19:10:19.965Z,26.60
2023-03-21T19:12:54.942Z,26.70
2023-03-21T19:15:24.354Z,26.90
2023-03-21T19:20:46.137Z,27.50
2023-03-21T19:23:13.382Z,27.60
2023-03-21T19:25:40.591Z,27.80
2023-03-21T19:28:08.553Z,28.50
2023-03-21T19:30:36.159Z,29.10
2023-03-21T19:33:05.930Z,28.90
2023-03-21T19:35:35.310Z,28.80
2023-03-21T19:38:02.566Z,28.40
2023-03-21T19:40:30.463Z,28.00
2023-03-21T19:42:58.126Z,28.30
2023-03-21T19:45:26.503Z,28.50
2023-03-21T19:47:53.539Z,28.10
2023-03-21T19:50:49.290Z,27.80
2023-03-21T19:53:08.009Z,28.50
2023-03-21T19:55:34.995Z,29.10
2023-03-21T19:58:02.129Z,30.00
2023-03-21T20:00:29.426Z,30.20
2023-03-21T20:02:56.908Z,30.00
2023-03-21T20:05:25.707Z,30.80
2023-03-21T20:07:55.422Z,32.00
2023-03-21T20:10:23.156Z,32.50
2023-03-21T20:12:50.420Z,31.60
2023-03-21T20:15:20.792Z,32.00
2023-03-21T20:17:49.291Z,32.90
2023-03-21T20:20:18.430Z,32.60
2023-03-21T20:23:06.187Z,32.60
2023-03-21T20:25:34.336Z,33.00
2023-03-21T20:28:15.055Z,32.20
2023-03-21T20:30:53.408Z,31.90
2023-03-21T20:33:20.527Z,31.40
2023-03-21T20:38:36.644Z,31.70
2023-03-21T20:41:06.390Z,31.20
2023-03-21T20:46:20.992Z,30.50
2023-03-21T20:48:49.799Z,31.10
2023-03-21T20:54:06.174Z,31.10
2023-03-21T20:56:33.711Z,30.60
2023-03-21T20:59:15.382Z,30.60
2023-03-21T21:01:45.589Z,31.60
2023-03-21T21:04:19.230Z,32.20
2023-03-21T21:06:48.419Z,32.20
2023-03-21T21:09:16.526Z,32.30
2023-03-21T21:12:07.276Z,32.30
2023-03-21T21:14:30.692Z,32.30
2023-03-21T21:16:58.983Z,32.60
2023-03-21T21:19:29.114Z,32.60
2023-03-21T21:21:56.251Z,31.90
2023-03-21T21:24:23.486Z,32.20
2023-03-21T21:26:51.165Z,32.30
2023-03-21T21:29:18.332Z,32.00
2023-03-21T21:31:54.688Z,32.40
2023-03-21T21:34:21.892Z,31.30
2023-03-21T21:36:49.725Z,31.20
2023-03-21T21:39:17.539Z,31.40
2023-03-21T21:41:44.509Z,30.80
2023-03-21T21:44:11.511Z,31.00
2023-03-21T21:46:39.029Z,30.80
2023-03-21T21:49:06.236Z,30.60
2023-03-21T21:51:34.244Z,31.00
2023-03-21T21:54:04.050Z,30.60
2023-03-21T21:56:32.284Z,30.80
2023-03-21T21:59:03.488Z,31.20
2023-03-21T22:01:30.735Z,31.40
2023-03-21T22:04:06.299Z,32.10
2023-03-21T22:06:34.768Z,31.70
2023-03-21T22:09:02.391Z,31.00
2023-03-21T22:11:29.431Z,31.50
2023-03-21T22:13:56.643Z,31.50
2023-03-21T22:16:23.669Z,31.50
2023-03-21T22:18:50.760Z,31.60
2023-03-21T22:21:17.857Z,32.10
2023-03-21T22:23:44.963Z,31.70
2023-03-21T22:26:12.114Z,32.40
2023-03-21T22:28:42.224Z,32.60
2023-03-21T22:31:12.968Z,32.40
2023-03-21T22:33:40.195Z,31.30
2023-03-21T22:36:07.805Z,31.10
2023-03-21T22:38:35.019Z,31.70
2023-03-21T22:41:03.853Z,31.60
2023-03-21T22:43:34.345Z,30.70
2023-03-21T22:46:03.006Z,30.80
2023-03-21T22:48:30.956Z,31.70
2023-03-21T22:51:01.257Z,30.90
2023-03-21T22:53:28.995Z,31.10
2023-03-21T22:55:56.507Z,30.50
2023-03-21T22:58:23.776Z,30.60
2023-03-21T23:00:51.367Z,30.60
2023-03-21T23:03:18.831Z,31.00
2023-03-21T23:05:47.206Z,31.30
2023-03-21T23:08:14.357Z,32.00
2023-03-21T23:10:43.830Z,32.70
2023-03-21T23:13:11.127Z,33.00
2023-03-21T23:15:41.335Z,32.70
2023-03-21T23:18:08.484Z,33.70
2023-03-21T23:20:36.084Z,34.80
2023-03-21T23:23:03.254Z,35.00
2023-03-21T23:25:30.506Z,36.30
2023-03-21T23:27:57.836Z,35.60
2023-03-21T23:30:25.102Z,34.70
2023-03-21T23:32:52.990Z,33.90
2023-03-21T23:35:20.053Z,34.20
2023-03-21T23:37:52.292Z,34.70
2023-03-21T23:40:20.578Z,34.80
2023-03-21T23:42:47.580Z,33.80
2023-03-21T23:45:14.765Z,33.70
2023-03-21T23:47:41.917Z,32.80
2023-03-21T23:50:10.323Z,32.70
2023-03-21T23:52:40.224Z,33.00
2023-03-21T23:55:08.057Z,33.30
2023-03-21T23:57:41.862Z,33.00
